Terminal Aerodrome Forecast
Issued by NWS

Home | Current Version | Previous Version | Text Only | Print | Product List | Glossary On
Versions: 1 2 3 4 5 6 7 8 9 10 11 12 13 14 15 16
000
FTUS41 KCAR 011120
TAFHUL
TAF
KHUL 011120Z 0112/0212 25006KT P6SM BKN120
     FM011500 21008KT P6SM VCSH BKN060
     FM011800 22010KT P6SM VCTS SCT025 BKN040CB
     FM012200 25007KT P6SM -SHRA OVC045
     FM020200 VRB03KT 6SM BR SKC
     FM020800 00000KT 2SM BR SCT003=

USA.gov is the U.S. government's official web portal to all federal, state and local government web resources and services.